sensor_id;sensor_type;location;lat;lon;timestamp;P1;durP1;ratioP1;P2;durP2;ratioP2
18651;SDS011;9455;54.302;10.124;2023-01-28T00:01:46;7.73;;;4.10;;
18651;SDS011;9455;54.302;10.124;2023-01-28T00:04:13;10.40;;;4.40;;
18651;SDS011;9455;54.302;10.124;2023-01-28T00:06:40;6.53;;;3.97;;
18651;SDS011;9455;54.302;10.124;2023-01-28T00:09:06;5.20;;;3.93;;
18651;SDS011;9455;54.302;10.124;2023-01-28T00:11:35;11.17;;;4.33;;
18651;SDS011;9455;54.302;10.124;2023-01-28T00:14:01;9.20;;;3.80;;
18651;SDS011;9455;54.302;10.124;2023-01-28T00:16:28;3.07;;;2.87;;
18651;SDS011;9455;54.302;10.124;2023-01-28T00:18:55;3.77;;;3.20;;
18651;SDS011;9455;54.302;10.124;2023-01-28T00:21:22;3.27;;;2.90;;
18651;SDS011;9455;54.302;10.124;2023-01-28T00:23:49;8.07;;;3.70;;
18651;SDS011;9455;54.302;10.124;2023-01-28T00:26:18;6.13;;;2.80;;
18651;SDS011;9455;54.302;10.124;2023-01-28T00:28:46;3.10;;;2.83;;
18651;SDS011;9455;54.302;10.124;2023-01-28T00:31:14;3.37;;;3.10;;
18651;SDS011;9455;54.302;10.124;2023-01-28T00:33:42;8.77;;;3.63;;
18651;SDS011;9455;54.302;10.124;2023-01-28T00:36:09;5.60;;;3.33;;
18651;SDS011;9455;54.302;10.124;2023-01-28T00:38:37;3.63;;;3.33;;
18651;SDS011;9455;54.302;10.124;2023-01-28T00:41:06;3.70;;;3.27;;
18651;SDS011;9455;54.302;10.124;2023-01-28T00:43:34;3.70;;;3.00;;
18651;SDS011;9455;54.302;10.124;2023-01-28T00:46:02;3.53;;;3.03;;
18651;SDS011;9455;54.302;10.124;2023-01-28T00:48:29;5.63;;;3.23;;
18651;SDS011;9455;54.302;10.124;2023-01-28T00:50:56;7.93;;;3.17;;
18651;SDS011;9455;54.302;10.124;2023-01-28T00:53:22;6.20;;;2.67;;
18651;SDS011;9455;54.302;10.124;2023-01-28T00:55:49;2.70;;;2.50;;
18651;SDS011;9455;54.302;10.124;2023-01-28T00:58:16;3.07;;;2.87;;
18651;SDS011;9455;54.302;10.124;2023-01-28T01:00:43;5.53;;;2.80;;
18651;SDS011;9455;54.302;10.124;2023-01-28T01:03:11;2.60;;;2.40;;
18651;SDS011;9455;54.302;10.124;2023-01-28T01:05:37;3.77;;;2.53;;
18651;SDS011;9455;54.302;10.124;2023-01-28T01:08:04;11.33;;;3.30;;
18651;SDS011;9455;54.302;10.124;2023-01-28T01:10:31;3.80;;;2.90;;
18651;SDS011;9455;54.302;10.124;2023-01-28T01:12:58;3.90;;;2.57;;
18651;SDS011;9455;54.302;10.124;2023-01-28T01:15:25;3.67;;;2.20;;
18651;SDS011;9455;54.302;10.124;2023-01-28T01:17:51;2.10;;;2.00;;
18651;SDS011;9455;54.302;10.124;2023-01-28T01:20:20;5.40;;;2.30;;
18651;SDS011;9455;54.302;10.124;2023-01-28T01:22:48;2.23;;;2.13;;
18651;SDS011;9455;54.302;10.124;2023-01-28T01:25:15;2.00;;;1.90;;
18651;SDS011;9455;54.302;10.124;2023-01-28T01:27:43;2.97;;;2.00;;
18651;SDS011;9455;54.302;10.124;2023-01-28T01:30:11;7.80;;;2.03;;
18651;SDS011;9455;54.302;10.124;2023-01-28T01:32:38;7.77;;;2.57;;
18651;SDS011;9455;54.302;10.124;2023-01-28T01:35:05;5.00;;;2.60;;
18651;SDS011;9455;54.302;10.124;2023-01-28T01:37:34;1.83;;;1.80;;
18651;SDS011;9455;54.302;10.124;2023-01-28T01:40:01;2.80;;;2.07;;
18651;SDS011;9455;54.302;10.124;2023-01-28T01:42:29;4.53;;;2.00;;
18651;SDS011;9455;54.302;10.124;2023-01-28T01:44:56;2.03;;;1.93;;
18651;SDS011;9455;54.302;10.124;2023-01-28T01:47:27;6.57;;;2.30;;
18651;SDS011;9455;54.302;10.124;2023-01-28T01:49:58;2.73;;;2.30;;
18651;SDS011;9455;54.302;10.124;2023-01-28T01:52:29;2.67;;;2.10;;
18651;SDS011;9455;54.302;10.124;2023-01-28T01:55:00;5.80;;;2.27;;
18651;SDS011;9455;54.302;10.124;2023-01-28T01:57:32;2.13;;;1.93;;
18651;SDS011;9455;54.302;10.124;2023-01-28T02:00:01;3.53;;;2.00;;
18651;SDS011;9455;54.302;10.124;2023-01-28T02:02:32;2.33;;;2.23;;
18651;SDS011;9455;54.302;10.124;2023-01-28T02:05:02;3.07;;;2.10;;
18651;SDS011;9455;54.302;10.124;2023-01-28T02:07:29;5.07;;;2.50;;
18651;SDS011;9455;54.302;10.124;2023-01-28T02:09:56;2.40;;;2.20;;
18651;SDS011;9455;54.302;10.124;2023-01-28T02:12:25;2.27;;;2.17;;
18651;SDS011;9455;54.302;10.124;2023-01-28T02:14:56;3.60;;;2.77;;
18651;SDS011;9455;54.302;10.124;2023-01-28T02:17:27;2.60;;;2.30;;
18651;SDS011;9455;54.302;10.124;2023-01-28T02:19:55;2.90;;;2.43;;
18651;SDS011;9455;54.302;10.124;2023-01-28T02:25:57;2.40;;;2.30;;
18651;SDS011;9455;54.302;10.124;2023-01-28T02:28:44;3.07;;;2.70;;
18651;SDS011;9455;54.302;10.124;2023-01-28T02:31:18;4.67;;;2.80;;
18651;SDS011;9455;54.302;10.124;2023-01-28T02:33:49;2.60;;;2.40;;
18651;SDS011;9455;54.302;10.124;2023-01-28T02:36:23;3.80;;;3.03;;
18651;SDS011;9455;54.302;10.124;2023-01-28T02:38:56;3.97;;;1.93;;
18651;SDS011;9455;54.302;10.124;2023-01-28T02:41:27;3.40;;;2.27;;
18651;SDS011;9455;54.302;10.124;2023-01-28T02:44:00;2.60;;;2.40;;
18651;SDS011;9455;54.302;10.124;2023-01-28T02:46:32;7.27;;;2.80;;
18651;SDS011;9455;54.302;10.124;2023-01-28T02:49:19;2.33;;;2.13;;
18651;SDS011;9455;54.302;10.124;2023-01-28T02:51:55;2.90;;;2.43;;
18651;SDS011;9455;54.302;10.124;2023-01-28T02:54:31;7.20;;;2.83;;
18651;SDS011;9455;54.302;10.124;2023-01-28T02:57:06;3.13;;;2.50;;
18651;SDS011;9455;54.302;10.124;2023-01-28T02:59:44;3.47;;;2.87;;
18651;SDS011;9455;54.302;10.124;2023-01-28T03:02:18;2.87;;;2.47;;
18651;SDS011;9455;54.302;10.124;2023-01-28T03:04:48;3.00;;;2.80;;
18651;SDS011;9455;54.302;10.124;2023-01-28T03:07:22;2.70;;;2.50;;
18651;SDS011;9455;54.302;10.124;2023-01-28T03:09:54;2.53;;;2.43;;
18651;SDS011;9455;54.302;10.124;2023-01-28T03:12:23;6.10;;;2.53;;
18651;SDS011;9455;54.302;10.124;2023-01-28T03:15:11;4.63;;;2.80;;
18651;SDS011;9455;54.302;10.124;2023-01-28T03:18:00;4.60;;;2.50;;
18651;SDS011;9455;54.302;10.124;2023-01-28T03:20:49;2.73;;;2.53;;
18651;SDS011;9455;54.302;10.124;2023-01-28T03:23:38;2.30;;;2.20;;
18651;SDS011;9455;54.302;10.124;2023-01-28T03:26:27;4.80;;;2.47;;
18651;SDS011;9455;54.302;10.124;2023-01-28T03:29:16;2.60;;;2.50;;
18651;SDS011;9455;54.302;10.124;2023-01-28T03:32:05;2.40;;;2.30;;
18651;SDS011;9455;54.302;10.124;2023-01-28T03:34:49;5.03;;;2.80;;
18651;SDS011;9455;54.302;10.124;2023-01-28T03:37:34;4.43;;;2.73;;
18651;SDS011;9455;54.302;10.124;2023-01-28T03:40:02;2.90;;;2.70;;
18651;SDS011;9455;54.302;10.124;2023-01-28T03:42:30;2.43;;;2.33;;
18651;SDS011;9455;54.302;10.124;2023-01-28T03:44:58;3.13;;;2.37;;
18651;SDS011;9455;54.302;10.124;2023-01-28T03:47:29;3.57;;;2.90;;
18651;SDS011;9455;54.302;10.124;2023-01-28T03:49:57;4.87;;;2.57;;
18651;SDS011;9455;54.302;10.124;2023-01-28T03:52:25;3.77;;;2.53;;
18651;SDS011;9455;54.302;10.124;2023-01-28T03:54:54;3.87;;;3.07;;
18651;SDS011;9455;54.302;10.124;2023-01-28T03:57:21;3.30;;;3.00;;
18651;SDS011;9455;54.302;10.124;2023-01-28T03:59:48;3.00;;;2.80;;
18651;SDS011;9455;54.302;10.124;2023-01-28T04:02:17;2.87;;;2.67;;
18651;SDS011;9455;54.302;10.124;2023-01-28T04:04:45;4.30;;;3.03;;
18651;SDS011;9455;54.302;10.124;2023-01-28T04:07:14;4.50;;;2.70;;
18651;SDS011;9455;54.302;10.124;2023-01-28T04:09:40;5.47;;;2.93;;
18651;SDS011;9455;54.302;10.124;2023-01-28T04:12:08;5.90;;;3.47;;
18651;SDS011;9455;54.302;10.124;2023-01-28T04:14:35;6.13;;;3.37;;
18651;SDS011;9455;54.302;10.124;2023-01-28T04:17:03;5.50;;;3.27;;
18651;SDS011;9455;54.302;10.124;2023-01-28T04:19:31;5.03;;;3.03;;
18651;SDS011;9455;54.302;10.124;2023-01-28T04:22:03;5.10;;;3.30;;
18651;SDS011;9455;54.302;10.124;2023-01-28T04:24:31;5.23;;;2.93;;
18651;SDS011;9455;54.302;10.124;2023-01-28T04:26:57;3.43;;;3.13;;
18651;SDS011;9455;54.302;10.124;2023-01-28T04:29:24;5.50;;;3.73;;
18651;SDS011;9455;54.302;10.124;2023-01-28T04:31:51;8.17;;;3.10;;
18651;SDS011;9455;54.302;10.124;2023-01-28T04:34:17;5.23;;;3.20;;
18651;SDS011;9455;54.302;10.124;2023-01-28T04:36:44;3.33;;;2.83;;
18651;SDS011;9455;54.302;10.124;2023-01-28T04:39:13;4.43;;;2.70;;
18651;SDS011;9455;54.302;10.124;2023-01-28T04:41:39;4.30;;;2.97;;
18651;SDS011;9455;54.302;10.124;2023-01-28T04:44:06;4.27;;;3.30;;
18651;SDS011;9455;54.302;10.124;2023-01-28T04:46:32;8.23;;;3.30;;
18651;SDS011;9455;54.302;10.124;2023-01-28T04:48:59;6.00;;;3.23;;
18651;SDS011;9455;54.302;10.124;2023-01-28T04:51:27;3.53;;;2.97;;
18651;SDS011;9455;54.302;10.124;2023-01-28T04:53:54;5.90;;;3.37;;
18651;SDS011;9455;54.302;10.124;2023-01-28T04:56:21;4.13;;;3.17;;
18651;SDS011;9455;54.302;10.124;2023-01-28T04:58:48;4.53;;;3.13;;
18651;SDS011;9455;54.302;10.124;2023-01-28T05:01:15;6.37;;;4.03;;
18651;SDS011;9455;54.302;10.124;2023-01-28T05:03:41;4.00;;;3.57;;
18651;SDS011;9455;54.302;10.124;2023-01-28T05:06:08;8.80;;;3.80;;
18651;SDS011;9455;54.302;10.124;2023-01-28T05:08:34;7.80;;;3.83;;
18651;SDS011;9455;54.302;10.124;2023-01-28T05:11:01;5.83;;;3.40;;
18651;SDS011;9455;54.302;10.124;2023-01-28T05:13:29;4.03;;;3.70;;
18651;SDS011;9455;54.302;10.124;2023-01-28T05:15:55;8.83;;;3.67;;
18651;SDS011;9455;54.302;10.124;2023-01-28T05:18:22;4.13;;;3.40;;
18651;SDS011;9455;54.302;10.124;2023-01-28T05:20:49;4.83;;;3.27;;
18651;SDS011;9455;54.302;10.124;2023-01-28T05:23:15;5.07;;;3.80;;
18651;SDS011;9455;54.302;10.124;2023-01-28T05:25:42;3.57;;;3.00;;
18651;SDS011;9455;54.302;10.124;2023-01-28T05:28:09;7.93;;;3.60;;
18651;SDS011;9455;54.302;10.124;2023-01-28T05:30:37;3.63;;;3.20;;
18651;SDS011;9455;54.302;10.124;2023-01-28T05:33:04;4.80;;;3.80;;
18651;SDS011;9455;54.302;10.124;2023-01-28T05:35:31;3.03;;;2.80;;
18651;SDS011;9455;54.302;10.124;2023-01-28T05:37:57;4.07;;;3.10;;
18651;SDS011;9455;54.302;10.124;2023-01-28T05:40:24;3.37;;;3.03;;
18651;SDS011;9455;54.302;10.124;2023-01-28T05:42:50;3.47;;;3.00;;
18651;SDS011;9455;54.302;10.124;2023-01-28T05:45:17;3.03;;;2.83;;
18651;SDS011;9455;54.302;10.124;2023-01-28T05:47:45;4.53;;;3.17;;
18651;SDS011;9455;54.302;10.124;2023-01-28T05:50:12;2.70;;;2.50;;
18651;SDS011;9455;54.302;10.124;2023-01-28T05:52:39;2.90;;;2.70;;
18651;SDS011;9455;54.302;10.124;2023-01-28T05:55:06;5.33;;;3.07;;
18651;SDS011;9455;54.302;10.124;2023-01-28T05:57:33;3.40;;;2.80;;
18651;SDS011;9455;54.302;10.124;2023-01-28T06:00:00;4.63;;;3.40;;
18651;SDS011;9455;54.302;10.124;2023-01-28T06:02:26;9.97;;;3.20;;
18651;SDS011;9455;54.302;10.124;2023-01-28T06:04:54;3.40;;;2.97;;
18651;SDS011;9455;54.302;10.124;2023-01-28T06:07:21;3.57;;;3.33;;
18651;SDS011;9455;54.302;10.124;2023-01-28T06:09:48;4.40;;;3.23;;
18651;SDS011;9455;54.302;10.124;2023-01-28T06:12:14;3.83;;;3.40;;
18651;SDS011;9455;54.302;10.124;2023-01-28T06:14:41;5.53;;;3.00;;
18651;SDS011;9455;54.302;10.124;2023-01-28T06:17:07;5.37;;;3.40;;
18651;SDS011;9455;54.302;10.124;2023-01-28T06:19:34;5.87;;;3.60;;
18651;SDS011;9455;54.302;10.124;2023-01-28T06:22:02;8.87;;;3.80;;
18651;SDS011;9455;54.302;10.124;2023-01-28T06:24:29;4.83;;;3.80;;
18651;SDS011;9455;54.302;10.124;2023-01-28T06:26:55;4.10;;;3.47;;
18651;SDS011;9455;54.302;10.124;2023-01-28T06:29:22;6.53;;;4.50;;
18651;SDS011;9455;54.302;10.124;2023-01-28T06:31:48;8.47;;;5.03;;
18651;SDS011;9455;54.302;10.124;2023-01-28T06:34:15;8.23;;;4.97;;
18651;SDS011;9455;54.302;10.124;2023-01-28T06:36:42;7.30;;;4.53;;
18651;SDS011;9455;54.302;10.124;2023-01-28T06:39:10;8.87;;;4.77;;
18651;SDS011;9455;54.302;10.124;2023-01-28T06:41:37;8.13;;;5.03;;
18651;SDS011;9455;54.302;10.124;2023-01-28T06:44:03;6.63;;;4.63;;
18651;SDS011;9455;54.302;10.124;2023-01-28T06:46:30;7.67;;;4.90;;
18651;SDS011;9455;54.302;10.124;2023-01-28T06:48:57;19.47;;;5.83;;
18651;SDS011;9455;54.302;10.124;2023-01-28T06:51:23;10.53;;;5.57;;
18651;SDS011;9455;54.302;10.124;2023-01-28T06:53:50;11.40;;;6.00;;
18651;SDS011;9455;54.302;10.124;2023-01-28T06:56:18;7.47;;;5.17;;
18651;SDS011;9455;54.302;10.124;2023-01-28T06:58:45;8.77;;;5.23;;
18651;SDS011;9455;54.302;10.124;2023-01-28T07:01:11;6.60;;;5.20;;
18651;SDS011;9455;54.302;10.124;2023-01-28T07:03:38;10.87;;;5.37;;
18651;SDS011;9455;54.302;10.124;2023-01-28T07:06:05;14.50;;;6.60;;
18651;SDS011;9455;54.302;10.124;2023-01-28T07:08:31;7.67;;;5.80;;
18651;SDS011;9455;54.302;10.124;2023-01-28T07:10:58;11.57;;;6.83;;
18651;SDS011;9455;54.302;10.124;2023-01-28T07:13:26;11.23;;;7.47;;
18651;SDS011;9455;54.302;10.124;2023-01-28T07:15:52;7.03;;;5.97;;
18651;SDS011;9455;54.302;10.124;2023-01-28T07:18:19;13.27;;;6.10;;
18651;SDS011;9455;54.302;10.124;2023-01-28T07:20:46;10.97;;;6.37;;
18651;SDS011;9455;54.302;10.124;2023-01-28T07:23:12;7.13;;;4.87;;
18651;SDS011;9455;54.302;10.124;2023-01-28T07:25:39;9.77;;;5.60;;
18651;SDS011;9455;54.302;10.124;2023-01-28T07:28:05;10.43;;;5.90;;
18651;SDS011;9455;54.302;10.124;2023-01-28T07:30:33;9.60;;;5.23;;
18651;SDS011;9455;54.302;10.124;2023-01-28T07:33:00;10.63;;;5.40;;
18651;SDS011;9455;54.302;10.124;2023-01-28T07:35:27;12.10;;;5.53;;
18651;SDS011;9455;54.302;10.124;2023-01-28T07:37:54;14.87;;;5.60;;
18651;SDS011;9455;54.302;10.124;2023-01-28T07:40:22;10.17;;;5.53;;
18651;SDS011;9455;54.302;10.124;2023-01-28T07:42:49;8.57;;;4.77;;
18651;SDS011;9455;54.302;10.124;2023-01-28T07:45:16;6.53;;;5.40;;
18651;SDS011;9455;54.302;10.124;2023-01-28T07:47:44;7.03;;;5.27;;
18651;SDS011;9455;54.302;10.124;2023-01-28T07:50:18;9.07;;;5.90;;
18651;SDS011;9455;54.302;10.124;2023-01-28T07:52:45;11.97;;;5.63;;
18651;SDS011;9455;54.302;10.124;2023-01-28T07:55:12;11.33;;;6.77;;
18651;SDS011;9455;54.302;10.124;2023-01-28T07:57:46;8.50;;;6.47;;
18651;SDS011;9455;54.302;10.124;2023-01-28T08:00:14;16.10;;;6.10;;
18651;SDS011;9455;54.302;10.124;2023-01-28T08:02:41;8.37;;;5.83;;
18651;SDS011;9455;54.302;10.124;2023-01-28T08:05:10;8.23;;;6.37;;
18651;SDS011;9455;54.302;10.124;2023-01-28T08:07:36;13.13;;;7.57;;
18651;SDS011;9455;54.302;10.124;2023-01-28T08:10:04;11.30;;;6.97;;
18651;SDS011;9455;54.302;10.124;2023-01-28T08:12:31;13.40;;;6.30;;
18651;SDS011;9455;54.302;10.124;2023-01-28T08:14:57;16.20;;;7.10;;
18651;SDS011;9455;54.302;10.124;2023-01-28T08:17:24;17.00;;;7.57;;
18651;SDS011;9455;54.302;10.124;2023-01-28T08:19:50;14.43;;;8.33;;
18651;SDS011;9455;54.302;10.124;2023-01-28T08:22:22;67.83;;;18.67;;
18651;SDS011;9455;54.302;10.124;2023-01-28T08:24:50;22.03;;;11.33;;
18651;SDS011;9455;54.302;10.124;2023-01-28T08:27:16;15.83;;;8.73;;
18651;SDS011;9455;54.302;10.124;2023-01-28T08:29:43;15.23;;;7.77;;
18651;SDS011;9455;54.302;10.124;2023-01-28T08:32:10;12.80;;;8.00;;
18651;SDS011;9455;54.302;10.124;2023-01-28T08:34:36;13.93;;;7.33;;
18651;SDS011;9455;54.302;10.124;2023-01-28T08:37:03;13.67;;;6.63;;
18651;SDS011;9455;54.302;10.124;2023-01-28T08:39:31;17.07;;;8.63;;
18651;SDS011;9455;54.302;10.124;2023-01-28T08:41:58;10.80;;;6.87;;
18651;SDS011;9455;54.302;10.124;2023-01-28T08:44:24;12.93;;;6.47;;
18651;SDS011;9455;54.302;10.124;2023-01-28T08:46:51;15.40;;;7.77;;
18651;SDS011;9455;54.302;10.124;2023-01-28T08:49:17;49.80;;;19.93;;
18651;SDS011;9455;54.302;10.124;2023-01-28T08:51:46;21.33;;;10.20;;
18651;SDS011;9455;54.302;10.124;2023-01-28T08:54:13;14.50;;;8.77;;
18651;SDS011;9455;54.302;10.124;2023-01-28T08:56:41;12.20;;;7.17;;
18651;SDS011;9455;54.302;10.124;2023-01-28T08:59:09;14.73;;;6.83;;
18651;SDS011;9455;54.302;10.124;2023-01-28T09:01:35;12.60;;;6.87;;
18651;SDS011;9455;54.302;10.124;2023-01-28T09:04:02;10.97;;;6.53;;
18651;SDS011;9455;54.302;10.124;2023-01-28T09:06:29;15.37;;;6.77;;
18651;SDS011;9455;54.302;10.124;2023-01-28T09:08:56;11.03;;;6.30;;
18651;SDS011;9455;54.302;10.124;2023-01-28T09:11:23;11.27;;;7.37;;
18651;SDS011;9455;54.302;10.124;2023-01-28T09:13:51;15.37;;;7.50;;
18651;SDS011;9455;54.302;10.124;2023-01-28T09:16:17;15.13;;;7.20;;
18651;SDS011;9455;54.302;10.124;2023-01-28T09:18:44;17.97;;;8.00;;
18651;SDS011;9455;54.302;10.124;2023-01-28T09:21:12;18.27;;;8.13;;
18651;SDS011;9455;54.302;10.124;2023-01-28T09:23:39;15.80;;;7.73;;
18651;SDS011;9455;54.302;10.124;2023-01-28T09:26:06;20.07;;;7.43;;
18651;SDS011;9455;54.302;10.124;2023-01-28T09:28:33;18.50;;;8.07;;
18651;SDS011;9455;54.302;10.124;2023-01-28T09:31:02;14.80;;;8.30;;
18651;SDS011;9455;54.302;10.124;2023-01-28T09:33:30;14.50;;;7.30;;
18651;SDS011;9455;54.302;10.124;2023-01-28T09:35:58;16.20;;;7.57;;
18651;SDS011;9455;54.302;10.124;2023-01-28T09:38:25;18.40;;;7.40;;
18651;SDS011;9455;54.302;10.124;2023-01-28T09:40:51;18.30;;;8.30;;
18651;SDS011;9455;54.302;10.124;2023-01-28T09:43:25;11.93;;;7.67;;
18651;SDS011;9455;54.302;10.124;2023-01-28T09:46:09;16.63;;;8.40;;
18651;SDS011;9455;54.302;10.124;2023-01-28T09:48:39;14.93;;;8.20;;
18651;SDS011;9455;54.302;10.124;2023-01-28T09:51:09;17.87;;;8.93;;
18651;SDS011;9455;54.302;10.124;2023-01-28T09:53:43;25.37;;;9.40;;
18651;SDS011;9455;54.302;10.124;2023-01-28T09:56:23;19.50;;;8.87;;
18651;SDS011;9455;54.302;10.124;2023-01-28T09:58:51;21.23;;;9.10;;
18651;SDS011;9455;54.302;10.124;2023-01-28T10:01:24;23.70;;;9.67;;
18651;SDS011;9455;54.302;10.124;2023-01-28T10:04:05;23.40;;;10.83;;
18651;SDS011;9455;54.302;10.124;2023-01-28T10:06:49;20.40;;;9.77;;
18651;SDS011;9455;54.302;10.124;2023-01-28T10:09:26;20.20;;;9.97;;
18651;SDS011;9455;54.302;10.124;2023-01-28T10:12:18;25.60;;;10.20;;
18651;SDS011;9455;54.302;10.124;2023-01-28T10:15:07;22.83;;;10.33;;
18651;SDS011;9455;54.302;10.124;2023-01-28T10:17:48;21.27;;;9.10;;
18651;SDS011;9455;54.302;10.124;2023-01-28T10:20:19;21.93;;;9.57;;
18651;SDS011;9455;54.302;10.124;2023-01-28T10:22:53;29.67;;;10.07;;
18651;SDS011;9455;54.302;10.124;2023-01-28T10:25:24;21.43;;;9.33;;
18651;SDS011;9455;54.302;10.124;2023-01-28T10:27:55;24.53;;;10.07;;
18651;SDS011;9455;54.302;10.124;2023-01-28T10:30:23;21.50;;;9.53;;
18651;SDS011;9455;54.302;10.124;2023-01-28T10:32:53;24.30;;;11.00;;
18651;SDS011;9455;54.302;10.124;2023-01-28T10:35:24;23.10;;;9.50;;
18651;SDS011;9455;54.302;10.124;2023-01-28T10:37:51;26.07;;;11.00;;
18651;SDS011;9455;54.302;10.124;2023-01-28T10:40:25;22.07;;;10.50;;
18651;SDS011;9455;54.302;10.124;2023-01-28T10:42:52;23.70;;;11.23;;
18651;SDS011;9455;54.302;10.124;2023-01-28T10:45:19;22.07;;;10.50;;
18651;SDS011;9455;54.302;10.124;2023-01-28T10:47:49;26.83;;;10.87;;
18651;SDS011;9455;54.302;10.124;2023-01-28T10:50:21;20.97;;;9.33;;
18651;SDS011;9455;54.302;10.124;2023-01-28T10:52:51;21.97;;;10.13;;
18651;SDS011;9455;54.302;10.124;2023-01-28T10:55:19;28.37;;;11.70;;
18651;SDS011;9455;54.302;10.124;2023-01-28T10:57:46;26.83;;;10.87;;
18651;SDS011;9455;54.302;10.124;2023-01-28T11:00:21;24.77;;;11.53;;
18651;SDS011;9455;54.302;10.124;2023-01-28T11:02:49;28.70;;;11.47;;
18651;SDS011;9455;54.302;10.124;2023-01-28T11:05:18;26.50;;;11.20;;
18651;SDS011;9455;54.302;10.124;2023-01-28T11:07:47;24.90;;;11.00;;
18651;SDS011;9455;54.302;10.124;2023-01-28T11:10:28;22.67;;;11.27;;
18651;SDS011;9455;54.302;10.124;2023-01-28T11:12:58;23.77;;;10.40;;
18651;SDS011;9455;54.302;10.124;2023-01-28T11:15:26;21.67;;;10.70;;
18651;SDS011;9455;54.302;10.124;2023-01-28T11:17:54;20.17;;;10.07;;
18651;SDS011;9455;54.302;10.124;2023-01-28T11:20:25;23.03;;;10.50;;
18651;SDS011;9455;54.302;10.124;2023-01-28T11:22:53;21.77;;;10.27;;
18651;SDS011;9455;54.302;10.124;2023-01-28T11:25:23;22.57;;;10.10;;
18651;SDS011;9455;54.302;10.124;2023-01-28T11:27:55;23.03;;;9.83;;
18651;SDS011;9455;54.302;10.124;2023-01-28T11:30:22;20.83;;;10.13;;
18651;SDS011;9455;54.302;10.124;2023-01-28T11:32:55;23.50;;;10.27;;
18651;SDS011;9455;54.302;10.124;2023-01-28T11:35:25;21.40;;;9.93;;
18651;SDS011;9455;54.302;10.124;2023-01-28T11:37:55;27.83;;;11.30;;
18651;SDS011;9455;54.302;10.124;2023-01-28T11:40:22;30.67;;;11.00;;
18651;SDS011;9455;54.302;10.124;2023-01-28T11:42:49;21.83;;;10.70;;
18651;SDS011;9455;54.302;10.124;2023-01-28T11:45:16;23.30;;;10.20;;
18651;SDS011;9455;54.302;10.124;2023-01-28T11:47:48;20.67;;;9.83;;
18651;SDS011;9455;54.302;10.124;2023-01-28T11:50:30;22.17;;;9.80;;
18651;SDS011;9455;54.302;10.124;2023-01-28T11:53:14;20.03;;;10.20;;
18651;SDS011;9455;54.302;10.124;2023-01-28T11:55:57;22.77;;;10.37;;
18651;SDS011;9455;54.302;10.124;2023-01-28T11:58:36;22.97;;;11.33;;
18651;SDS011;9455;54.302;10.124;2023-01-28T12:01:13;25.27;;;10.33;;
18651;SDS011;9455;54.302;10.124;2023-01-28T12:03:51;25.27;;;11.30;;
18651;SDS011;9455;54.302;10.124;2023-01-28T12:06:45;24.10;;;10.50;;
18651;SDS011;9455;54.302;10.124;2023-01-28T12:09:24;21.83;;;10.80;;
18651;SDS011;9455;54.302;10.124;2023-01-28T12:12:03;20.13;;;9.60;;
18651;SDS011;9455;54.302;10.124;2023-01-28T12:14:44;19.67;;;9.87;;
18651;SDS011;9455;54.302;10.124;2023-01-28T12:17:31;18.83;;;10.50;;
18651;SDS011;9455;54.302;10.124;2023-01-28T12:20:13;18.30;;;10.07;;
18651;SDS011;9455;54.302;10.124;2023-01-28T12:22:54;17.90;;;9.27;;
18651;SDS011;9455;54.302;10.124;2023-01-28T12:25:36;22.63;;;10.43;;
18651;SDS011;9455;54.302;10.124;2023-01-28T12:28:14;17.97;;;9.50;;
18651;SDS011;9455;54.302;10.124;2023-01-28T12:30:53;20.87;;;9.97;;
18651;SDS011;9455;54.302;10.124;2023-01-28T12:33:47;24.57;;;8.77;;
18651;SDS011;9455;54.302;10.124;2023-01-28T12:36:34;18.40;;;9.47;;
18651;SDS011;9455;54.302;10.124;2023-01-28T12:39:17;18.87;;;8.47;;
18651;SDS011;9455;54.302;10.124;2023-01-28T12:41:53;20.20;;;10.07;;
18651;SDS011;9455;54.302;10.124;2023-01-28T12:44:27;17.07;;;9.00;;
18651;SDS011;9455;54.302;10.124;2023-01-28T12:46:59;15.80;;;8.70;;
18651;SDS011;9455;54.302;10.124;2023-01-28T12:49:31;18.73;;;8.67;;
18651;SDS011;9455;54.302;10.124;2023-01-28T12:52:02;17.97;;;9.70;;
18651;SDS011;9455;54.302;10.124;2023-01-28T12:54:37;19.07;;;9.20;;
18651;SDS011;9455;54.302;10.124;2023-01-28T12:57:10;23.03;;;10.33;;
18651;SDS011;9455;54.302;10.124;2023-01-28T12:59:43;19.33;;;9.60;;
18651;SDS011;9455;54.302;10.124;2023-01-28T13:02:20;19.33;;;9.57;;
18651;SDS011;9455;54.302;10.124;2023-01-28T13:04:50;19.13;;;9.27;;
18651;SDS011;9455;54.302;10.124;2023-01-28T13:07:23;20.27;;;9.50;;
18651;SDS011;9455;54.302;10.124;2023-01-28T13:10:05;17.83;;;8.47;;
18651;SDS011;9455;54.302;10.124;2023-01-28T13:12:42;25.20;;;10.57;;
18651;SDS011;9455;54.302;10.124;2023-01-28T13:15:11;22.33;;;9.87;;
18651;SDS011;9455;54.302;10.124;2023-01-28T13:17:39;17.97;;;8.87;;
18651;SDS011;9455;54.302;10.124;2023-01-28T13:20:28;16.23;;;8.97;;
18651;SDS011;9455;54.302;10.124;2023-01-28T13:22:59;22.77;;;9.30;;
18651;SDS011;9455;54.302;10.124;2023-01-28T13:25:28;21.67;;;9.57;;
18651;SDS011;9455;54.302;10.124;2023-01-28T13:27:55;20.67;;;8.97;;
18651;SDS011;9455;54.302;10.124;2023-01-28T13:30:25;16.37;;;9.10;;
18651;SDS011;9455;54.302;10.124;2023-01-28T13:32:54;23.97;;;8.77;;
18651;SDS011;9455;54.302;10.124;2023-01-28T13:35:29;18.17;;;8.60;;
18651;SDS011;9455;54.302;10.124;2023-01-28T13:37:58;17.77;;;9.10;;
18651;SDS011;9455;54.302;10.124;2023-01-28T13:40:36;15.93;;;7.93;;
18651;SDS011;9455;54.302;10.124;2023-01-28T13:43:22;19.13;;;8.63;;
18651;SDS011;9455;54.302;10.124;2023-01-28T13:45:55;25.60;;;8.70;;
18651;SDS011;9455;54.302;10.124;2023-01-28T13:48:26;19.33;;;8.80;;
18651;SDS011;9455;54.302;10.124;2023-01-28T13:50:57;16.27;;;7.93;;
18651;SDS011;9455;54.302;10.124;2023-01-28T13:53:29;17.00;;;7.70;;
18651;SDS011;9455;54.302;10.124;2023-01-28T13:56:06;15.93;;;8.23;;
18651;SDS011;9455;54.302;10.124;2023-01-28T13:58:49;16.73;;;9.03;;
18651;SDS011;9455;54.302;10.124;2023-01-28T14:01:55;20.13;;;8.03;;
18651;SDS011;9455;54.302;10.124;2023-01-28T14:07:42;19.30;;;8.57;;
18651;SDS011;9455;54.302;10.124;2023-01-28T14:10:43;19.13;;;7.70;;
18651;SDS011;9455;54.302;10.124;2023-01-28T14:13:29;17.27;;;8.83;;
18651;SDS011;9455;54.302;10.124;2023-01-28T14:16:18;21.07;;;8.20;;
18651;SDS011;9455;54.302;10.124;2023-01-28T14:18:54;15.93;;;7.70;;
18651;SDS011;9455;54.302;10.124;2023-01-28T14:21:24;18.67;;;9.10;;
18651;SDS011;9455;54.302;10.124;2023-01-28T14:23:53;21.87;;;8.30;;
18651;SDS011;9455;54.302;10.124;2023-01-28T14:26:33;16.47;;;7.57;;
18651;SDS011;9455;54.302;10.124;2023-01-28T14:29:12;15.20;;;7.17;;
18651;SDS011;9455;54.302;10.124;2023-01-28T14:31:44;15.07;;;7.93;;
18651;SDS011;9455;54.302;10.124;2023-01-28T14:34:14;17.20;;;7.53;;
18651;SDS011;9455;54.302;10.124;2023-01-28T14:36:47;15.53;;;7.27;;
18651;SDS011;9455;54.302;10.124;2023-01-28T14:39:15;15.40;;;7.40;;
18651;SDS011;9455;54.302;10.124;2023-01-28T14:41:44;15.23;;;7.23;;
18651;SDS011;9455;54.302;10.124;2023-01-28T14:44:19;15.67;;;8.17;;
18651;SDS011;9455;54.302;10.124;2023-01-28T14:47:03;16.10;;;8.97;;
18651;SDS011;9455;54.302;10.124;2023-01-28T14:49:41;18.47;;;7.43;;
18651;SDS011;9455;54.302;10.124;2023-01-28T14:52:35;16.67;;;8.03;;
18651;SDS011;9455;54.302;10.124;2023-01-28T14:55:19;22.20;;;8.70;;
18651;SDS011;9455;54.302;10.124;2023-01-28T14:57:54;18.40;;;7.83;;
18651;SDS011;9455;54.302;10.124;2023-01-28T15:00:26;15.67;;;7.90;;
18651;SDS011;9455;54.302;10.124;2023-01-28T15:02:54;20.13;;;9.30;;
18651;SDS011;9455;54.302;10.124;2023-01-28T15:05:22;19.73;;;9.13;;
18651;SDS011;9455;54.302;10.124;2023-01-28T15:07:50;16.43;;;8.30;;